sensor_id;sensor_type;location;lat;lon;timestamp;pressure;altitude;pressure_sealevel;temperature;humidity
62025;BME280;47978;49.118;12.146;2022-07-01T00:02:09;97087.09;;;19.17;85.38
62025;BME280;47978;49.118;12.146;2022-07-01T00:04:40;97079.19;;;19.23;85.04
62025;BME280;47978;49.118;12.146;2022-07-01T00:07:07;97072.03;;;19.25;84.86
62025;BME280;47978;49.118;12.146;2022-07-01T00:09:34;97084.75;;;19.19;85.51
62025;BME280;47978;49.118;12.146;2022-07-01T00:12:01;97091.09;;;19.16;85.54
62025;BME280;47978;49.118;12.146;2022-07-01T00:14:29;97092.34;;;19.19;85.38
62025;BME280;47978;49.118;12.146;2022-07-01T00:16:55;97089.84;;;19.14;85.85
62025;BME280;47978;49.118;12.146;2022-07-01T00:19:22;97094.69;;;19.17;85.56
62025;BME280;47978;49.118;12.146;2022-07-01T00:21:48;97106.28;;;19.15;86.17
62025;BME280;47978;49.118;12.146;2022-07-01T00:24:15;97109.00;;;19.12;86.75
62025;BME280;47978;49.118;12.146;2022-07-01T00:26:41;97111.31;;;19.06;87.18
62025;BME280;47978;49.118;12.146;2022-07-01T00:29:08;97105.72;;;19.06;86.94
62025;BME280;47978;49.118;12.146;2022-07-01T00:31:36;97115.44;;;19.12;86.90
62025;BME280;47978;49.118;12.146;2022-07-01T00:34:03;97118.00;;;19.21;87.01
62025;BME280;47978;49.118;12.146;2022-07-01T00:36:30;97118.88;;;19.25;86.51
62025;BME280;47978;49.118;12.146;2022-07-01T00:38:57;97111.78;;;19.31;86.38
62025;BME280;47978;49.118;12.146;2022-07-01T00:41:24;97119.88;;;19.36;85.83
62025;BME280;47978;49.118;12.146;2022-07-01T00:43:50;97122.75;;;19.40;85.74
62025;BME280;47978;49.118;12.146;2022-07-01T00:46:20;97128.06;;;19.45;85.88
62025;BME280;47978;49.118;12.146;2022-07-01T00:48:50;97136.06;;;19.46;85.34
62025;BME280;47978;49.118;12.146;2022-07-01T00:51:17;97159.84;;;19.52;84.65
62025;BME280;47978;49.118;12.146;2022-07-01T00:53:44;97166.31;;;19.57;83.80
62025;BME280;47978;49.118;12.146;2022-07-01T00:56:11;97170.81;;;19.61;83.43
62025;BME280;47978;49.118;12.146;2022-07-01T00:58:38;97172.56;;;19.69;82.29
62025;BME280;47978;49.118;12.146;2022-07-01T01:01:04;97175.03;;;19.71;82.02
62025;BME280;47978;49.118;12.146;2022-07-01T01:03:31;97177.06;;;19.74;81.49
62025;BME280;47978;49.118;12.146;2022-07-01T01:05:59;97171.16;;;19.79;80.82
62025;BME280;47978;49.118;12.146;2022-07-01T01:08:26;97172.75;;;19.80;81.25
62025;BME280;47978;49.118;12.146;2022-07-01T01:10:53;97179.63;;;19.83;77.84
62025;BME280;47978;49.118;12.146;2022-07-01T01:13:19;97176.50;;;19.88;77.04
62025;BME280;47978;49.118;12.146;2022-07-01T01:15:46;97175.41;;;19.92;76.45
62025;BME280;47978;49.118;12.146;2022-07-01T01:18:12;97177.94;;;20.01;74.21
62025;BME280;47978;49.118;12.146;2022-07-01T01:20:40;97189.66;;;20.07;73.48
62025;BME280;47978;49.118;12.146;2022-07-01T01:23:07;97179.66;;;20.09;73.61
62025;BME280;47978;49.118;12.146;2022-07-01T01:25:34;97188.22;;;20.16;73.14
62025;BME280;47978;49.118;12.146;2022-07-01T01:28:01;97182.28;;;20.21;72.28
62025;BME280;47978;49.118;12.146;2022-07-01T01:30:28;97177.09;;;20.24;72.44
62025;BME280;47978;49.118;12.146;2022-07-01T01:32:55;97171.91;;;20.26;72.18
62025;BME280;47978;49.118;12.146;2022-07-01T01:35:22;97168.31;;;20.29;71.75
62025;BME280;47978;49.118;12.146;2022-07-01T01:37:50;97171.97;;;20.29;71.29
62025;BME280;47978;49.118;12.146;2022-07-01T01:40:17;97167.09;;;20.26;72.35
62025;BME280;47978;49.118;12.146;2022-07-01T01:42:43;97171.09;;;20.25;72.09
62025;BME280;47978;49.118;12.146;2022-07-01T01:45:11;97165.31;;;20.14;75.15
62025;BME280;47978;49.118;12.146;2022-07-01T01:47:38;97159.63;;;20.11;76.18
62025;BME280;47978;49.118;12.146;2022-07-01T01:50:05;97163.19;;;20.08;75.38
62025;BME280;47978;49.118;12.146;2022-07-01T01:52:32;97165.53;;;20.02;73.59
62025;BME280;47978;49.118;12.146;2022-07-01T01:55:00;97159.53;;;20.04;73.04
62025;BME280;47978;49.118;12.146;2022-07-01T01:57:27;97166.44;;;20.10;71.71
62025;BME280;47978;49.118;12.146;2022-07-01T01:59:54;97161.69;;;20.14;70.94
62025;BME280;47978;49.118;12.146;2022-07-01T02:02:20;97162.88;;;20.13;71.32
62025;BME280;47978;49.118;12.146;2022-07-01T02:04:48;97165.69;;;20.13;71.41
62025;BME280;47978;49.118;12.146;2022-07-01T02:07:14;97172.13;;;20.13;71.39
62025;BME280;47978;49.118;12.146;2022-07-01T02:09:41;97171.31;;;20.13;70.45
62025;BME280;47978;49.118;12.146;2022-07-01T02:12:09;97183.72;;;20.12;70.95
62025;BME280;47978;49.118;12.146;2022-07-01T02:14:36;97198.56;;;20.12;70.86
62025;BME280;47978;49.118;12.146;2022-07-01T02:17:03;97202.09;;;20.09;70.83
62025;BME280;47978;49.118;12.146;2022-07-01T02:19:29;97204.44;;;20.04;70.98
62025;BME280;47978;49.118;12.146;2022-07-01T02:21:56;97198.84;;;20.04;69.88
62025;BME280;47978;49.118;12.146;2022-07-01T02:24:22;97193.94;;;20.00;70.53
62025;BME280;47978;49.118;12.146;2022-07-01T02:26:49;97180.41;;;20.06;70.40
62025;BME280;47978;49.118;12.146;2022-07-01T02:29:17;97194.78;;;20.01;70.54
62025;BME280;47978;49.118;12.146;2022-07-01T02:31:44;97207.25;;;20.04;69.86
62025;BME280;47978;49.118;12.146;2022-07-01T02:34:11;97192.78;;;20.02;69.50
62025;BME280;47978;49.118;12.146;2022-07-01T02:36:37;97193.28;;;20.07;68.96
62025;BME280;47978;49.118;12.146;2022-07-01T02:39:04;97196.09;;;20.07;68.99
62025;BME280;47978;49.118;12.146;2022-07-01T02:41:30;97199.25;;;20.06;68.69
62025;BME280;47978;49.118;12.146;2022-07-01T02:43:57;97213.72;;;20.08;68.47
62025;BME280;47978;49.118;12.146;2022-07-01T02:46:25;97216.09;;;20.06;68.31
62025;BME280;47978;49.118;12.146;2022-07-01T02:48:51;97224.03;;;20.00;68.60
62025;BME280;47978;49.118;12.146;2022-07-01T02:51:18;97213.09;;;19.95;68.66
62025;BME280;47978;49.118;12.146;2022-07-01T02:53:44;97221.84;;;19.90;68.55
62025;BME280;47978;49.118;12.146;2022-07-01T02:56:11;97233.84;;;19.87;68.36
62025;BME280;47978;49.118;12.146;2022-07-01T02:58:37;97238.94;;;19.81;68.67
62025;BME280;47978;49.118;12.146;2022-07-01T03:01:04;97260.13;;;19.79;68.92
62025;BME280;47978;49.118;12.146;2022-07-01T03:03:32;97270.09;;;19.76;68.88
62025;BME280;47978;49.118;12.146;2022-07-01T03:05:58;97260.44;;;19.73;69.20
62025;BME280;47978;49.118;12.146;2022-07-01T03:08:25;97259.19;;;19.71;69.70
62025;BME280;47978;49.118;12.146;2022-07-01T03:10:52;97263.19;;;19.70;69.80
62025;BME280;47978;49.118;12.146;2022-07-01T03:13:18;97267.91;;;19.66;69.61
62025;BME280;47978;49.118;12.146;2022-07-01T03:15:45;97279.84;;;19.63;69.41
62025;BME280;47978;49.118;12.146;2022-07-01T03:18:11;97281.03;;;19.62;69.01
62025;BME280;47978;49.118;12.146;2022-07-01T03:20:39;97275.72;;;19.57;69.37
62025;BME280;47978;49.118;12.146;2022-07-01T03:23:06;97280.06;;;19.54;68.98
62025;BME280;47978;49.118;12.146;2022-07-01T03:25:32;97291.00;;;19.59;68.72
62025;BME280;47978;49.118;12.146;2022-07-01T03:27:59;97292.47;;;19.53;68.35
62025;BME280;47978;49.118;12.146;2022-07-01T03:30:26;97280.81;;;19.51;69.08
62025;BME280;47978;49.118;12.146;2022-07-01T03:32:52;97275.94;;;19.48;68.96
62025;BME280;47978;49.118;12.146;2022-07-01T03:35:19;97282.75;;;19.47;69.18
62025;BME280;47978;49.118;12.146;2022-07-01T03:37:47;97280.28;;;19.45;69.04
62025;BME280;47978;49.118;12.146;2022-07-01T03:40:13;97271.66;;;19.54;68.90
62025;BME280;47978;49.118;12.146;2022-07-01T03:42:40;97266.34;;;19.49;68.69
62025;BME280;47978;49.118;12.146;2022-07-01T03:45:07;97268.78;;;19.50;69.31
62025;BME280;47978;49.118;12.146;2022-07-01T03:47:34;97280.34;;;19.49;69.17
62025;BME280;47978;49.118;12.146;2022-07-01T03:50:01;97295.63;;;19.51;68.93
62025;BME280;47978;49.118;12.146;2022-07-01T03:52:27;97289.44;;;19.42;69.60
62025;BME280;47978;49.118;12.146;2022-07-01T03:54:55;97291.22;;;19.31;69.58
62025;BME280;47978;49.118;12.146;2022-07-01T03:57:22;97304.94;;;19.36;69.89
62025;BME280;47978;49.118;12.146;2022-07-01T03:59:48;97314.38;;;19.28;70.19
62025;BME280;47978;49.118;12.146;2022-07-01T04:02:15;97326.34;;;19.25;70.52
62025;BME280;47978;49.118;12.146;2022-07-01T04:04:41;97323.81;;;19.20;70.90
62025;BME280;47978;49.118;12.146;2022-07-01T04:07:10;97316.59;;;19.19;71.09
62025;BME280;47978;49.118;12.146;2022-07-01T04:09:37;97323.00;;;19.19;70.95
62025;BME280;47978;49.118;12.146;2022-07-01T04:12:05;97328.91;;;19.14;71.00
62025;BME280;47978;49.118;12.146;2022-07-01T04:14:32;97340.13;;;19.14;71.05
62025;BME280;47978;49.118;12.146;2022-07-01T04:16:59;97345.94;;;19.05;71.31
62025;BME280;47978;49.118;12.146;2022-07-01T04:19:26;97345.84;;;19.02;71.52
62025;BME280;47978;49.118;12.146;2022-07-01T04:21:52;97356.25;;;19.01;72.03
62025;BME280;47978;49.118;12.146;2022-07-01T04:24:19;97352.00;;;19.07;71.60
62025;BME280;47978;49.118;12.146;2022-07-01T04:26:45;97353.31;;;19.14;71.34
62025;BME280;47978;49.118;12.146;2022-07-01T04:29:13;97352.94;;;19.15;70.91
62025;BME280;47978;49.118;12.146;2022-07-01T04:31:40;97359.06;;;19.21;70.83
62025;BME280;47978;49.118;12.146;2022-07-01T04:34:07;97363.16;;;19.43;70.18
62025;BME280;47978;49.118;12.146;2022-07-01T04:36:34;97349.84;;;19.55;69.63
62025;BME280;47978;49.118;12.146;2022-07-01T04:39:01;97357.34;;;19.51;69.53
62025;BME280;47978;49.118;12.146;2022-07-01T04:41:28;97355.97;;;19.61;69.79
62025;BME280;47978;49.118;12.146;2022-07-01T04:43:54;97353.09;;;19.77;69.31
62025;BME280;47978;49.118;12.146;2022-07-01T04:46:22;97360.69;;;19.76;69.56
62025;BME280;47978;49.118;12.146;2022-07-01T04:48:49;97358.19;;;19.91;69.05
62025;BME280;47978;49.118;12.146;2022-07-01T04:51:16;97376.28;;;19.74;69.21
62025;BME280;47978;49.118;12.146;2022-07-01T04:53:42;97369.81;;;19.70;70.18
62025;BME280;47978;49.118;12.146;2022-07-01T04:56:09;97364.00;;;19.63;70.05
62025;BME280;47978;49.118;12.146;2022-07-01T04:58:35;97367.13;;;19.77;69.22
62025;BME280;47978;49.118;12.146;2022-07-01T05:01:02;97378.41;;;20.00;67.81
62025;BME280;47978;49.118;12.146;2022-07-01T05:03:55;97376.72;;;19.95;68.19
62025;BME280;47978;49.118;12.146;2022-07-01T05:06:21;97376.34;;;19.97;68.74
62025;BME280;47978;49.118;12.146;2022-07-01T05:08:48;97366.06;;;20.05;68.16
62025;BME280;47978;49.118;12.146;2022-07-01T05:11:15;97374.03;;;20.03;67.83
62025;BME280;47978;49.118;12.146;2022-07-01T05:13:42;97369.75;;;20.09;67.74
62025;BME280;47978;49.118;12.146;2022-07-01T05:16:09;97362.75;;;19.99;68.28
62025;BME280;47978;49.118;12.146;2022-07-01T05:18:35;97377.66;;;20.03;68.05
62025;BME280;47978;49.118;12.146;2022-07-01T05:21:03;97372.66;;;20.12;67.69
62025;BME280;47978;49.118;12.146;2022-07-01T05:23:35;97372.66;;;20.12;67.70
62025;BME280;47978;49.118;12.146;2022-07-01T05:26:02;97372.38;;;19.98;68.31
62025;BME280;47978;49.118;12.146;2022-07-01T05:28:29;97371.06;;;20.15;67.45
62025;BME280;47978;49.118;12.146;2022-07-01T05:30:55;97388.28;;;20.13;67.45
62025;BME280;47978;49.118;12.146;2022-07-01T05:33:22;97390.13;;;20.25;67.09
62025;BME280;47978;49.118;12.146;2022-07-01T05:35:48;97399.78;;;20.28;66.84
62025;BME280;47978;49.118;12.146;2022-07-01T05:38:16;97394.88;;;20.21;67.20
62025;BME280;47978;49.118;12.146;2022-07-01T05:40:43;97395.78;;;20.29;66.73
62025;BME280;47978;49.118;12.146;2022-07-01T05:43:10;97398.31;;;20.34;66.57
62025;BME280;47978;49.118;12.146;2022-07-01T05:45:36;97400.22;;;20.49;65.99
62025;BME280;47978;49.118;12.146;2022-07-01T05:48:03;97377.25;;;20.66;66.13
62025;BME280;47978;49.118;12.146;2022-07-01T05:50:30;97381.81;;;21.01;64.37
62025;BME280;47978;49.118;12.146;2022-07-01T05:52:56;97378.06;;;21.20;64.23
62025;BME280;47978;49.118;12.146;2022-07-01T05:55:24;97393.34;;;21.19;64.60
62025;BME280;47978;49.118;12.146;2022-07-01T05:57:51;97398.69;;;21.28;64.59
62025;BME280;47978;49.118;12.146;2022-07-01T06:00:18;97398.75;;;21.58;63.79
62025;BME280;47978;49.118;12.146;2022-07-01T06:02:44;97399.56;;;21.59;64.00
62025;BME280;47978;49.118;12.146;2022-07-01T06:05:11;97407.31;;;21.99;62.06
62025;BME280;47978;49.118;12.146;2022-07-01T06:07:38;97404.75;;;21.87;61.62
62025;BME280;47978;49.118;12.146;2022-07-01T06:10:05;97405.34;;;22.37;60.49
62025;BME280;47978;49.118;12.146;2022-07-01T06:12:33;97408.16;;;22.74;59.36
62025;BME280;47978;49.118;12.146;2022-07-01T06:15:00;97406.78;;;22.98;58.08
62025;BME280;47978;49.118;12.146;2022-07-01T06:17:27;97393.41;;;22.51;59.53
62025;BME280;47978;49.118;12.146;2022-07-01T06:19:53;97403.19;;;22.60;59.37
62025;BME280;47978;49.118;12.146;2022-07-01T06:22:20;97403.91;;;22.54;59.41
62025;BME280;47978;49.118;12.146;2022-07-01T06:24:46;97405.47;;;22.14;61.16
62025;BME280;47978;49.118;12.146;2022-07-01T06:27:13;97398.06;;;22.32;60.02
62025;BME280;47978;49.118;12.146;2022-07-01T06:29:41;97414.19;;;22.32;60.35
62025;BME280;47978;49.118;12.146;2022-07-01T06:32:07;97413.00;;;22.36;59.97
62025;BME280;47978;49.118;12.146;2022-07-01T06:34:34;97429.19;;;21.49;63.50
62025;BME280;47978;49.118;12.146;2022-07-01T06:37:02;97432.34;;;21.21;64.01
62025;BME280;47978;49.118;12.146;2022-07-01T06:39:29;97431.91;;;21.19;63.43
62025;BME280;47978;49.118;12.146;2022-07-01T06:41:56;97444.75;;;21.20;64.02
62025;BME280;47978;49.118;12.146;2022-07-01T06:44:23;97450.88;;;20.99;65.23
62025;BME280;47978;49.118;12.146;2022-07-01T06:46:51;97446.34;;;20.94;65.40
62025;BME280;47978;49.118;12.146;2022-07-01T06:49:17;97448.13;;;20.79;66.46
62025;BME280;47978;49.118;12.146;2022-07-01T06:51:44;97444.66;;;20.43;67.38
62025;BME280;47978;49.118;12.146;2022-07-01T06:54:11;97441.13;;;20.27;67.53
62025;BME280;47978;49.118;12.146;2022-07-01T06:56:37;97433.25;;;20.36;67.57
62025;BME280;47978;49.118;12.146;2022-07-01T06:59:04;97440.63;;;20.64;67.00
62025;BME280;47978;49.118;12.146;2022-07-01T07:01:31;97437.56;;;20.73;66.78
62025;BME280;47978;49.118;12.146;2022-07-01T07:03:58;97451.38;;;20.58;66.99
62025;BME280;47978;49.118;12.146;2022-07-01T07:06:26;97458.25;;;20.61;67.03
62025;BME280;47978;49.118;12.146;2022-07-01T07:08:52;97455.03;;;20.62;67.26
62025;BME280;47978;49.118;12.146;2022-07-01T07:11:19;97448.16;;;20.60;67.08
62025;BME280;47978;49.118;12.146;2022-07-01T07:13:46;97453.59;;;20.49;67.52
62025;BME280;47978;49.118;12.146;2022-07-01T07:16:12;97460.53;;;20.55;66.58
62025;BME280;47978;49.118;12.146;2022-07-01T07:18:39;97470.50;;;20.33;67.83
62025;BME280;47978;49.118;12.146;2022-07-01T07:21:07;97470.50;;;20.33;67.57
62025;BME280;47978;49.118;12.146;2022-07-01T07:23:34;97489.44;;;20.17;67.80
62025;BME280;47978;49.118;12.146;2022-07-01T07:26:00;97503.47;;;19.78;69.49
62025;BME280;47978;49.118;12.146;2022-07-01T07:28:27;97509.06;;;19.62;70.10
62025;BME280;47978;49.118;12.146;2022-07-01T07:30:53;97507.75;;;19.40;71.11
62025;BME280;47978;49.118;12.146;2022-07-01T07:33:20;97506.66;;;19.45;70.33
62025;BME280;47978;49.118;12.146;2022-07-01T07:35:47;97506.94;;;19.40;71.60
62025;BME280;47978;49.118;12.146;2022-07-01T07:38:15;97500.63;;;19.11;72.07
62025;BME280;47978;49.118;12.146;2022-07-01T07:40:41;97504.06;;;18.88;72.83
62025;BME280;47978;49.118;12.146;2022-07-01T07:43:08;97497.97;;;18.71;73.29
62025;BME280;47978;49.118;12.146;2022-07-01T07:45:35;97512.84;;;18.87;72.48
62025;BME280;47978;49.118;12.146;2022-07-01T07:48:01;97517.34;;;18.63;73.97
62025;BME280;47978;49.118;12.146;2022-07-01T07:50:28;97531.22;;;18.44;74.12
62025;BME280;47978;49.118;12.146;2022-07-01T07:52:55;97543.81;;;18.22;74.97
62025;BME280;47978;49.118;12.146;2022-07-01T07:55:23;97538.78;;;18.28;74.50
62025;BME280;47978;49.118;12.146;2022-07-01T07:57:49;97545.91;;;18.13;75.01
62025;BME280;47978;49.118;12.146;2022-07-01T08:00:16;97554.44;;;18.16;75.89
62025;BME280;47978;49.118;12.146;2022-07-01T08:02:43;97560.56;;;17.94;76.49
62025;BME280;47978;49.118;12.146;2022-07-01T08:05:10;97568.97;;;17.82;76.84
62025;BME280;47978;49.118;12.146;2022-07-01T08:07:37;97560.31;;;17.74;76.26
62025;BME280;47978;49.118;12.146;2022-07-01T08:10:05;97565.72;;;17.80;75.99
62025;BME280;47978;49.118;12.146;2022-07-01T08:12:33;97562.19;;;17.58;77.29
62025;BME280;47978;49.118;12.146;2022-07-01T08:15:00;97572.22;;;17.59;77.19
62025;BME280;47978;49.118;12.146;2022-07-01T08:17:27;97566.84;;;17.66;76.14
62025;BME280;47978;49.118;12.146;2022-07-01T08:19:53;97559.41;;;17.70;75.54
62025;BME280;47978;49.118;12.146;2022-07-01T08:22:20;97556.84;;;17.65;75.74
62025;BME280;47978;49.118;12.146;2022-07-01T08:24:46;97567.91;;;17.86;75.29
62025;BME280;47978;49.118;12.146;2022-07-01T08:27:13;97569.09;;;17.85;74.66
62025;BME280;47978;49.118;12.146;2022-07-01T08:29:41;97578.16;;;17.94;75.07
62025;BME280;47978;49.118;12.146;2022-07-01T08:32:08;97574.31;;;17.99;74.70
62025;BME280;47978;49.118;12.146;2022-07-01T08:34:35;97578.34;;;18.14;73.93
62025;BME280;47978;49.118;12.146;2022-07-01T08:37:02;97582.59;;;17.83;75.13
62025;BME280;47978;49.118;12.146;2022-07-01T08:39:29;97596.09;;;17.69;76.99
62025;BME280;47978;49.118;12.146;2022-07-01T08:41:56;97597.97;;;17.77;76.28
62025;BME280;47978;49.118;12.146;2022-07-01T08:44:23;97586.53;;;17.70;76.49
62025;BME280;47978;49.118;12.146;2022-07-01T08:46:51;97579.47;;;17.85;75.53
62025;BME280;47978;49.118;12.146;2022-07-01T08:49:18;97581.69;;;17.79;76.05
62025;BME280;47978;49.118;12.146;2022-07-01T08:51:45;97585.94;;;18.01;74.96
62025;BME280;47978;49.118;12.146;2022-07-01T08:54:11;97585.94;;;18.01;75.63
62025;BME280;47978;49.118;12.146;2022-07-01T08:56:38;97584.28;;;18.12;75.11
62025;BME280;47978;49.118;12.146;2022-07-01T08:59:04;97588.69;;;18.26;74.05
62025;BME280;47978;49.118;12.146;2022-07-01T09:01:31;97594.47;;;18.45;72.65
62025;BME280;47978;49.118;12.146;2022-07-01T09:04:15;97591.13;;;18.39;72.94
62025;BME280;47978;49.118;12.146;2022-07-01T09:06:43;97593.53;;;18.41;72.97
62025;BME280;47978;49.118;12.146;2022-07-01T09:09:11;97589.59;;;18.30;73.76
62025;BME280;47978;49.118;12.146;2022-07-01T09:11:43;97596.75;;;18.27;73.95
62025;BME280;47978;49.118;12.146;2022-07-01T09:14:12;97587.72;;;18.74;72.03
62025;BME280;47978;49.118;12.146;2022-07-01T09:16:40;97594.53;;;18.89;71.76
62025;BME280;47978;49.118;12.146;2022-07-01T09:19:10;97599.63;;;18.99;70.21
62025;BME280;47978;49.118;12.146;2022-07-01T09:21:37;97601.72;;;19.02;70.05
62025;BME280;47978;49.118;12.146;2022-07-01T09:24:05;97601.41;;;18.92;70.76
62025;BME280;47978;49.118;12.146;2022-07-01T09:26:51;97600.72;;;19.26;69.28
62025;BME280;47978;49.118;12.146;2022-07-01T09:29:18;97608.16;;;19.35;69.08
62025;BME280;47978;49.118;12.146;2022-07-01T09:31:48;97608.06;;;19.31;69.10
62025;BME280;47978;49.118;12.146;2022-07-01T09:34:16;97608.50;;;19.49;67.80
62025;BME280;47978;49.118;12.146;2022-07-01T09:36:52;97616.22;;;19.36;68.74
62025;BME280;47978;49.118;12.146;2022-07-01T09:39:18;97610.88;;;19.31;68.64
62025;BME280;47978;49.118;12.146;2022-07-01T09:42:02;97618.00;;;19.13;70.03
62025;BME280;47978;49.118;12.146;2022-07-01T09:44:28;97614.50;;;19.47;68.33
62025;BME280;47978;49.118;12.146;2022-07-01T09:46:56;97620.94;;;19.48;68.07
62025;BME280;47978;49.118;12.146;2022-07-01T09:49:24;97617.31;;;19.47;67.54
62025;BME280;47978;49.118;12.146;2022-07-01T09:51:51;97623.03;;;19.67;66.92
62025;BME280;47978;49.118;12.146;2022-07-01T09:54:18;97624.44;;;19.61;66.90
62025;BME280;47978;49.118;12.146;2022-07-01T09:56:45;97625.47;;;19.68;65.88
62025;BME280;47978;49.118;12.146;2022-07-01T09:59:16;97628.72;;;19.39;67.59
62025;BME280;47978;49.118;12.146;2022-07-01T10:01:43;97632.75;;;18.69;69.72
62025;BME280;47978;49.118;12.146;2022-07-01T10:04:12;97633.69;;;18.73;70.11
62025;BME280;47978;49.118;12.146;2022-07-01T10:06:56;97634.06;;;18.31;71.56
62025;BME280;47978;49.118;12.146;2022-07-01T10:09:44;97639.06;;;18.38;72.32
62025;BME280;47978;49.118;12.146;2022-07-01T10:12:39;97640.50;;;18.60;70.83
62025;BME280;47978;49.118;12.146;2022-07-01T10:15:09;97646.69;;;18.65;70.54
62025;BME280;47978;49.118;12.146;2022-07-01T10:17:41;97650.81;;;18.43;72.01
62025;BME280;47978;49.118;12.146;2022-07-01T10:20:13;97642.47;;;18.31;71.90
62025;BME280;47978;49.118;12.146;2022-07-01T10:22:48;97641.34;;;17.95;73.26
62025;BME280;47978;49.118;12.146;2022-07-01T10:25:31;97643.75;;;17.72;73.95
62025;BME280;47978;49.118;12.146;2022-07-01T10:28:15;97638.06;;;17.69;74.17
62025;BME280;47978;49.118;12.146;2022-07-01T10:30:49;97642.38;;;17.54;74.88
62025;BME280;47978;49.118;12.146;2022-07-01T10:33:39;97643.88;;;17.64;74.59
62025;BME280;47978;49.118;12.146;2022-07-01T10:36:09;97642.63;;;17.86;73.46
62025;BME280;47978;49.118;12.146;2022-07-01T10:39:16;97638.88;;;18.06;72.67
62025;BME280;47978;49.118;12.146;2022-07-01T10:41:57;97653.44;;;18.24;71.60
62025;BME280;47978;49.118;12.146;2022-07-01T10:44:59;97644.84;;;18.05;71.89
62025;BME280;47978;49.118;12.146;2022-07-01T10:47:26;97646.22;;;18.11;71.24
62025;BME280;47978;49.118;12.146;2022-07-01T10:50:14;97648.91;;;17.95;73.15
62025;BME280;47978;49.118;12.146;2022-07-01T10:52:59;97648.19;;;18.23;72.17
62025;BME280;47978;49.118;12.146;2022-07-01T10:55:37;97650.41;;;18.17;72.32
62025;BME280;47978;49.118;12.146;2022-07-01T10:58:04;97650.06;;;18.18;72.68
62025;BME280;47978;49.118;12.146;2022-07-01T11:00:32;97666.84;;;18.31;72.41
62025;BME280;47978;49.118;12.146;2022-07-01T11:03:13;97677.69;;;18.32;71.33
62025;BME280;47978;49.118;12.146;2022-07-01T11:05:41;97678.97;;;18.35;70.14
62025;BME280;47978;49.118;12.146;2022-07-01T11:08:08;97686.34;;;18.15;71.09
62025;BME280;47978;49.118;12.146;2022-07-01T11:10:39;97694.47;;;18.32;70.27
62025;BME280;47978;49.118;12.146;2022-07-01T11:13:06;97692.28;;;18.26;69.20
62025;BME280;47978;49.118;12.146;2022-07-01T11:15:33;97696.69;;;18.39;69.03
62025;BME280;47978;49.118;12.146;2022-07-01T11:18:01;97699.13;;;18.40;68.46
62025;BME280;47978;49.118;12.146;2022-07-01T11:20:31;97698.19;;;18.49;68.44
62025;BME280;47978;49.118;12.146;2022-07-01T11:22:58;97699.22;;;18.56;68.25
62025;BME280;47978;49.118;12.146;2022-07-01T11:25:25;97702.59;;;18.62;68.13
62025;BME280;47978;49.118;12.146;2022-07-01T11:27:53;97696.19;;;18.49;68.51
62025;BME280;47978;49.118;12.146;2022-07-01T11:30:20;97696.19;;;18.49;68.16
62025;BME280;47978;49.118;12.146;2022-07-01T11:32:52;97691.97;;;18.55;68.10
62025;BME280;47978;49.118;12.146;2022-07-01T11:35:20;97687.50;;;18.66;66.89
62025;BME280;47978;49.118;12.146;2022-07-01T11:37:47;97685.78;;;18.74;65.74
62025;BME280;47978;49.118;12.146;2022-07-01T11:40:17;97683.06;;;18.90;66.22
62025;BME280;47978;49.118;12.146;2022-07-01T11:42:44;97681.88;;;18.91;65.17
62025;BME280;47978;49.118;12.146;2022-07-01T11:45:22;97676.97;;;18.88;65.23
62025;BME280;47978;49.118;12.146;2022-07-01T11:47:49;97687.97;;;19.09;65.00
62025;BME280;47978;49.118;12.146;2022-07-01T11:50:16;97699.25;;;19.25;63.22
62025;BME280;47978;49.118;12.146;2022-07-01T11:52:43;97696.13;;;18.86;64.56
62025;BME280;47978;49.118;12.146;2022-07-01T11:55:09;97700.94;;;19.14;64.27
62025;BME280;47978;49.118;12.146;2022-07-01T11:57:56;97706.44;;;19.10;63.67
62025;BME280;47978;49.118;12.146;2022-07-01T12:00:32;97708.47;;;18.97;63.87
62025;BME280;47978;49.118;12.146;2022-07-01T12:02:59;97711.31;;;18.85;64.60
62025;BME280;47978;49.118;12.146;2022-07-01T12:05:26;97718.22;;;18.75;64.88
62025;BME280;47978;49.118;12.146;2022-07-01T12:07:53;97722.41;;;18.69;64.73
62025;BME280;47978;49.118;12.146;2022-07-01T12:10:23;97720.44;;;18.57;65.11
62025;BME280;47978;49.118;12.146;2022-07-01T12:12:50;97710.22;;;18.37;65.90
62025;BME280;47978;49.118;12.146;2022-07-01T12:15:16;97710.94;;;18.34;65.47
62025;BME280;47978;49.118;12.146;2022-07-01T12:17:44;97698.91;;;18.21;66.24
62025;BME280;47978;49.118;12.146;2022-07-01T12:20:11;97704.16;;;18.35;66.08
62025;BME280;47978;49.118;12.146;2022-07-01T12:22:38;97702.97;;;18.48;64.82
62025;BME280;47978;49.118;12.146;2022-07-01T12:25:06;97706.25;;;18.50;64.20
62025;BME280;47978;49.118;12.146;2022-07-01T12:27:34;97710.13;;;18.33;65.14
62025;BME280;47978;49.118;12.146;2022-07-01T12:30:01;97704.97;;;18.48;64.56
62025;BME280;47978;49.118;12.146;2022-07-01T12:32:28;97711.00;;;18.50;64.56
62025;BME280;47978;49.118;12.146;2022-07-01T12:34:57;97706.28;;;18.26;65.05
62025;BME280;47978;49.118;12.146;2022-07-01T12:37:28;97704.41;;;18.17;65.30
62025;BME280;47978;49.118;12.146;2022-07-01T12:39:56;97701.41;;;18.10;64.74
62025;BME280;47978;49.118;12.146;2022-07-01T12:42:26;97708.84;;;17.82;65.42
62025;BME280;47978;49.118;12.146;2022-07-01T12:44:55;97710.66;;;17.65;65.40
62025;BME280;47978;49.118;12.146;2022-07-01T12:47:25;97714.16;;;17.62;67.30
62025;BME280;47978;49.118;12.146;2022-07-01T12:50:11;97716.22;;;17.53;67.29
62025;BME280;47978;49.118;12.146;2022-07-01T12:52:39;97721.84;;;17.65;67.54
62025;BME280;47978;49.118;12.146;2022-07-01T12:55:13;97732.47;;;17.72;66.58
62025;BME280;47978;49.118;12.146;2022-07-01T12:57:41;97731.22;;;17.82;65.97